Observation data for Tulia on 02/11/2018      Previous  Date  Next       Current Mesonet Observations  Soil Data  Daily Summary Page  Observations in Plain Language
KTIS 110600Z 36009KT M10/M13 A3002 RMK A01 T10991129  RH  080%=      5-min Rain = 0
KTIS 110605Z 36008KT M10/M13 A3002 RMK A01 T11001129  RH  080%=      5-min Rain = 0
KTIS 110610Z 35007KT M10/M13 A3002 RMK A01 T11011131  RH  080%=      5-min Rain = 0
KTIS 110615Z 35006KT M10/M13 A3002 RMK A01 T11031132  RH  081%=      5-min Rain = 0
KTIS 110620Z 35007KT M11/M13 A3002 RMK A01 T11051132  RH  082%=      5-min Rain = 0
KTIS 110625Z 35006KT M11/M13 A3002 RMK A01 T11051132  RH  082%=      5-min Rain = 0
KTIS 110630Z 35006KT M11/M13 A3003 RMK A01 T11051132  RH  082%=      5-min Rain = 0
KTIS 110635Z 36006KT M11/M13 A3003 RMK A01 T11051132  RH  082%=      5-min Rain = 0
KTIS 110640Z 35006KT M11/M13 A3003 RMK A01 T11051132  RH  082%=      5-min Rain = 0
KTIS 110645Z 36006KT M11/M13 A3003 RMK A01 T11061132  RH  082%=      5-min Rain = 0
KTIS 110650Z 35006KT M11/M13 A3003 RMK A01 T11061133  RH  082%=      5-min Rain = 0
KTIS 110655Z 35007KT M11/M14 A3003 RMK A01 T11091135  RH  083%=      5-min Rain = 0
KTIS 110700Z 35008KT M11/M14 A3003 RMK A01 T11111135  RH  084%=      5-min Rain = 0
KTIS 110705Z 35007KT M11/M14 A3003 RMK A01 T11111135  RH  084%=      5-min Rain = 0
KTIS 110710Z 36009KT M11/M13 A3003 RMK A01 T11091133  RH  084%=      5-min Rain = 0
KTIS 110715Z 35010KT M11/M13 A3002 RMK A01 T11071131  RH  083%=      5-min Rain = 0
KTIS 110720Z 36009KT M11/M13 A3002 RMK A01 T11051131  RH  082%=      5-min Rain = 0
KTIS 110725Z 36009KT M10/M13 A3002 RMK A01 T11041131  RH  082%=      5-min Rain = 0
KTIS 110730Z 35010KT M10/M13 A3002 RMK A01 T11031130  RH  082%=      5-min Rain = 0
KTIS 110735Z 36011KT M10/M13 A3002 RMK A01 T11031130  RH  082%=      5-min Rain = 0
KTIS 110740Z 35009KT M10/M13 A3002 RMK A01 T11031130  RH  081%=      5-min Rain = 0
KTIS 110745Z 35009KT M10/M13 A3002 RMK A01 T11041131  RH  082%=      5-min Rain = 0
KTIS 110750Z 35009KT M11/M13 A3003 RMK A01 T11061131  RH  083%=      5-min Rain = 0
KTIS 110755Z 34009KT M11/M13 A3002 RMK A01 T11071131  RH  084%=      5-min Rain = 0
KTIS 110800Z 35011KT M11/M13 A3002 RMK A01 T11061129  RH  084%=      5-min Rain = 0
KTIS 110805Z 35011KT M11/M13 A3002 RMK A01 T11051128  RH  084%=      5-min Rain = 0
KTIS 110810Z 35010KT M10/M13 A3003 RMK A01 T11041128  RH  084%=      5-min Rain = 0
KTIS 110815Z 35010KT M10/M13 A3003 RMK A01 T11041128  RH  084%=      5-min Rain = 0
KTIS 110820Z 35011KT M10/M13 A3003 RMK A01 T11031127  RH  083%=      5-min Rain = 0
KTIS 110825Z 35012KT M10/M13 A3003 RMK A01 T11021127  RH  083%=      5-min Rain = 0
KTIS 110830Z 35012KT M10/M13 A3004 RMK A01 T11011126  RH  083%=      5-min Rain = 0
KTIS 110835Z 34011KT M10/M13 A3004 RMK A01 T11001126  RH  083%=      5-min Rain = 0
KTIS 110840Z 35012KT M10/M13 A3004 RMK A01 T11011126  RH  083%=      5-min Rain = 0
KTIS 110845Z 35011KT M10/M13 A3004 RMK A01 T11011127  RH  083%=      5-min Rain = 0
KTIS 110850Z 35011KT M10/M13 A3004 RMK A01 T11011127  RH  083%=      5-min Rain = 0
KTIS 110855Z 35011KT M10/M13 A3004 RMK A01 T11021127  RH  083%=      5-min Rain = 0
KTIS 110900Z 35013KT M10/M13 A3004 RMK A01 T11021126  RH  083%=      5-min Rain = 0
KTIS 110905Z 35012KT M10/M13 A3004 RMK A01 T11011126  RH  083%=      5-min Rain = 0
KTIS 110910Z 35013KT M10/M13 A3004 RMK A01 T11011126  RH  083%=      5-min Rain = 0
KTIS 110915Z 35013KT M10/M13 A3004 RMK A01 T11001125  RH  083%=      5-min Rain = 0
KTIS 110920Z 35013KT M10/M13 A3004 RMK A01 T10991125  RH  082%=      5-min Rain = 0
KTIS 110925Z 35013KT M10/M13 A3004 RMK A01 T10981125  RH  082%=      5-min Rain = 0
KTIS 110930Z 35012KT M10/M13 A3004 RMK A01 T10981125  RH  082%=      5-min Rain = 0
KTIS 110935Z 35012KT M10/M13 A3004 RMK A01 T10971125  RH  082%=      5-min Rain = 0
KTIS 110940Z 35012KT M10/M12 A3004 RMK A01 T10971124  RH  082%=      5-min Rain = 0
KTIS 110945Z 35012KT M10/M12 A3004 RMK A01 T10961124  RH  081%=      5-min Rain = 0
KTIS 110950Z 35011KT M10/M12 A3004 RMK A01 T10961124  RH  081%=      5-min Rain = 0
KTIS 110955Z 35012KT M10/M13 A3005 RMK A01 T10961125  RH  081%=      5-min Rain = 0
KTIS 111000Z 35011KT M10/M13 A3005 RMK A01 T10961125  RH  081%=      5-min Rain = 0
KTIS 111005Z 35011KT M10/M13 A3005 RMK A01 T10961125  RH  081%=      5-min Rain = 0
KTIS 111010Z 35011KT M10/M13 A3005 RMK A01 T10961125  RH  081%=      5-min Rain = 0
KTIS 111015Z 35011KT M10/M13 A3006 RMK A01 T10961125  RH  081%=      5-min Rain = 0
KTIS 111020Z 34012KT M10/M13 A3006 RMK A01 T10951125  RH  080%=      5-min Rain = 0
KTIS 111025Z 35011KT M10/M13 A3006 RMK A01 T10951125  RH  080%=      5-min Rain = 0
KTIS 111030Z 35011KT M10/M13 A3005 RMK A01 T10951125  RH  080%=      5-min Rain = 0
KTIS 111035Z 35011KT M10/M13 A3006 RMK A01 T10951125  RH  080%=      5-min Rain = 0
KTIS 111040Z 35010KT M09/M13 A3006 RMK A01 T10941125  RH  080%=      5-min Rain = 0
KTIS 111045Z 35010KT M09/M13 A3006 RMK A01 T10941125  RH  079%=      5-min Rain = 0
KTIS 111050Z 34009KT M09/M12 A3007 RMK A01 T10931124  RH  079%=      5-min Rain = 0
KTIS 111055Z 34011KT M09/M13 A3007 RMK A01 T10931125  RH  079%=      5-min Rain = 0
KTIS 111100Z 34011KT M09/M13 A3007 RMK A01 T10931125  RH  078%=      5-min Rain = 0
KTIS 111105Z 34010KT M09/M13 A3007 RMK A01 T10921125  RH  078%=      5-min Rain = 0
KTIS 111110Z 35011KT M09/M13 A3007 RMK A01 T10911125  RH  078%=      5-min Rain = 0
KTIS 111115Z 35012KT M09/M13 A3007 RMK A01 T10911125  RH  077%=      5-min Rain = 0
KTIS 111120Z 35011KT M09/M13 A3007 RMK A01 T10901126  RH  077%=      5-min Rain = 0
KTIS 111125Z 35012KT M09/M13 A3007 RMK A01 T10891126  RH  076%=      5-min Rain = 0
KTIS 111130Z 35011KT M09/M13 A3007 RMK A01 T10891126  RH  076%=      5-min Rain = 0
KTIS 111135Z 35012KT M09/M13 A3007 RMK A01 T10891127  RH  075%=      5-min Rain = 0
KTIS 111140Z 35015KT M09/M13 A3007 RMK A01 T10881127  RH  074%=      5-min Rain = 0
KTIS 111145Z 35014KT M09/M13 A3007 RMK A01 T10881128  RH  074%=      5-min Rain = 0
KTIS 111150Z 36014KT M09/M13 A3008 RMK A01 T10881128  RH  074%=      5-min Rain = 0
KTIS 111155Z 35013KT M09/M13 A3008 RMK A01 T10881127  RH  074%=      5-min Rain = 0
KTIS 111200Z 34013KT M09/M13 A3008 RMK A01 T10881127  RH  075%=      5-min Rain = 0
KTIS 111205Z 34011KT M09/M13 A3009 RMK A01 T10891126  RH  075%=      5-min Rain = 0
KTIS 111210Z 35010KT M09/M13 A3009 RMK A01 T10891126  RH  075%=      5-min Rain = 0
KTIS 111215Z 34010KT M09/M13 A3009 RMK A01 T10891126  RH  075%=      5-min Rain = 0
KTIS 111220Z 34008KT M09/M13 A3009 RMK A01 T10891126  RH  076%=      5-min Rain = 0
KTIS 111225Z 34009KT M09/M13 A301 RMK A01 T10891126  RH  076%=      5-min Rain = 0
KTIS 111230Z 34008KT M09/M13 A301 RMK A01 T10891126  RH  076%=      5-min Rain = 0
KTIS 111235Z 34009KT M09/M13 A301 RMK A01 T10891125  RH  076%=      5-min Rain = 0
KTIS 111240Z 34010KT M09/M13 A301 RMK A01 T10891125  RH  076%=      5-min Rain = 0
KTIS 111245Z 34009KT M09/M13 A3011 RMK A01 T10891125  RH  076%=      5-min Rain = 0
KTIS 111250Z 33009KT M09/M13 A3011 RMK A01 T10901125  RH  077%=      5-min Rain = 0
KTIS 111255Z 34010KT M09/M12 A3011 RMK A01 T10891124  RH  077%=      5-min Rain = 0
KTIS 111300Z 34010KT M09/M12 A3012 RMK A01 T10881123  RH  077%=      5-min Rain = 0
KTIS 111305Z 33008KT M09/M12 A3012 RMK A01 T10891123  RH  077%=      5-min Rain = 0
KTIS 111310Z 34008KT M09/M12 A3012 RMK A01 T10891123  RH  077%=      5-min Rain = 0
KTIS 111315Z 33007KT M09/M12 A3012 RMK A01 T10901123  RH  078%=      5-min Rain = 0
KTIS 111320Z 33007KT M09/M12 A3012 RMK A01 T10901123  RH  078%=      5-min Rain = 0
KTIS 111325Z 33008KT M09/M12 A3012 RMK A01 T10901123  RH  078%=      5-min Rain = 0
KTIS 111330Z 33007KT M09/M12 A3012 RMK A01 T10901122  RH  078%=      5-min Rain = 0
KTIS 111335Z 32007KT M09/M12 A3013 RMK A01 T10881121  RH  078%=      5-min Rain = 0
KTIS 111340Z 33008KT M09/M12 A3013 RMK A01 T10871121  RH  078%=      5-min Rain = 0
KTIS 111345Z 33007KT M09/M12 A3013 RMK A01 T10861121  RH  077%=      5-min Rain = 0
KTIS 111350Z 33007KT M09/M12 A3013 RMK A01 T10861120  RH  077%=      5-min Rain = 0
KTIS 111355Z 32008KT M09/M12 A3013 RMK A01 T10851120  RH  077%=      5-min Rain = 0
KTIS 111400Z 32008KT M08/M12 A3014 RMK A01 T10841119  RH  077%=      5-min Rain = 0
KTIS 111405Z 32008KT M08/M12 A3014 RMK A01 T10831119  RH  076%=      5-min Rain = 0
KTIS 111410Z 33007KT M08/M12 A3014 RMK A01 T10821118  RH  076%=      5-min Rain = 0
KTIS 111415Z 32007KT M08/M12 A3015 RMK A01 T10811117  RH  076%=      5-min Rain = 0
KTIS 111420Z 32006KT M08/M12 A3015 RMK A01 T10801117  RH  076%=      5-min Rain = 0
KTIS 111425Z 33008KT M08/M12 A3015 RMK A01 T10781116  RH  075%=      5-min Rain = 0
KTIS 111430Z 33008KT M08/M12 A3015 RMK A01 T10771116  RH  075%=      5-min Rain = 0
KTIS 111435Z 33009KT M08/M11 A3015 RMK A01 T10761114  RH  075%=      5-min Rain = 0
KTIS 111440Z 33008KT M07/M11 A3016 RMK A01 T10741113  RH  075%=      5-min Rain = 0
KTIS 111445Z 33007KT M07/M11 A3016 RMK A01 T10711111  RH  074%=      5-min Rain = 0
KTIS 111450Z 33009KT M07/M11 A3016 RMK A01 T10701112  RH  073%=      5-min Rain = 0
KTIS 111455Z 33010KT M07/M11 A3016 RMK A01 T10691111  RH  073%=      5-min Rain = 0
KTIS 111500Z 33010KT M07/M11 A3017 RMK A01 T10671111  RH  072%=      5-min Rain = 0
KTIS 111505Z 32010KT M07/M11 A3017 RMK A01 T10671111  RH  072%=      5-min Rain = 0
KTIS 111510Z 33011KT M07/M11 A3017 RMK A01 T10651110  RH  071%=      5-min Rain = 0
KTIS 111515Z 33010KT M06/M11 A3017 RMK A01 T10631109  RH  071%=      5-min Rain = 0
KTIS 111520Z 33010KT M06/M11 A3018 RMK A01 T10611108  RH  070%=      5-min Rain = 0
KTIS 111525Z 33009KT M06/M11 A3017 RMK A01 T10591107  RH  070%=      5-min Rain = 0
KTIS 111530Z 32009KT M06/M11 A3018 RMK A01 T10571106  RH  069%=      5-min Rain = 0
KTIS 111535Z 33009KT M05/M10 A3018 RMK A01 T10531104  RH  068%=      5-min Rain = 0
KTIS 111540Z 33011KT M05/M10 A3018 RMK A01 T10511103  RH  067%=      5-min Rain = 0
KTIS 111545Z 34012KT M05/M10 A3018 RMK A01 T10501104  RH  067%=      5-min Rain = 0
KTIS 111550Z 33012KT M05/M10 A3018 RMK A01 T10481103  RH  066%=      5-min Rain = 0
KTIS 111555Z 33013KT M05/M10 A3018 RMK A01 T10461103  RH  065%=      5-min Rain = 0
KTIS 111600Z 34013KT M05/M10 A3018 RMK A01 T10451102  RH  065%=      5-min Rain = 0
KTIS 111605Z 34012KT M04/M10 A3018 RMK A01 T10421101  RH  065%=      5-min Rain = 0
KTIS 111610Z 34013KT M04/M10 A3018 RMK A01 T10401101  RH  063%=      5-min Rain = 0
KTIS 111615Z 34012KT M04/M10 A3019 RMK A01 T10381099  RH  063%=      5-min Rain = 0
KTIS 111620Z 34013KT M04/M10 A3019 RMK A01 T10351099  RH  062%=      5-min Rain = 0
KTIS 111625Z 34014G19KT M03/M10 A3019 RMK A01 T10301098  RH  061%=      5-min Rain = 0
KTIS 111630Z 34015G20KT M03/M10 A3019 RMK A01 T10271096  RH  060%=      5-min Rain = 0
KTIS 111635Z 34016KT M03/M10 A3019 RMK A01 T10271098  RH  059%=      5-min Rain = 0
KTIS 111640Z 34015KT M03/M10 A3018 RMK A01 T10261095  RH  060%=      5-min Rain = 0
KTIS 111645Z 34015KT M02/M09 A3018 RMK A01 T10191093  RH  058%=      5-min Rain = 0
KTIS 111650Z 34014KT M01/M09 A3018 RMK A01 T10141093  RH  056%=      5-min Rain = 0
KTIS 111655Z 34015G20KT M01/M09 A3018 RMK A01 T10091091  RH  054%=      5-min Rain = 0
KTIS 111700Z 34016G21KT M01/M09 A3019 RMK A01 T10071091  RH  053%=      5-min Rain = 0
KTIS 111705Z 35016KT M01/M09 A3019 RMK A01 T10061093  RH  052%=      5-min Rain = 0
KTIS 111710Z 35015G20KT M00/M09 A3019 RMK A01 T10041093  RH  052%=      5-min Rain = 0
KTIS 111715Z 34015G20KT M00/M09 A3019 RMK A01 T10011091  RH  051%=      5-min Rain = 0
KTIS 111720Z 33014KT M00/M09 A3019 RMK A01 T10011093  RH  051%=      5-min Rain = 0
KTIS 111725Z 35014KT 00/09 A3018 RMK A01 T00-00-93  RH  050%=      5-min Rain = 0
KTIS 111730Z 34013G20KT M00/M09 A3018 RMK A01 T10011094  RH  050%=      5-min Rain = 0
KTIS 111735Z 35013G18KT 00/M09 A3018 RMK A01 T00011094  RH  049%=      5-min Rain = 0
KTIS 111740Z 34012G17KT 00/M09 A3018 RMK A01 T00021094  RH  049%=      5-min Rain = 0
KTIS 111745Z 36011G18KT 01/M09 A3018 RMK A01 T00071094  RH  047%=      5-min Rain = 0
KTIS 111750Z 35012KT 01/M10 A3018 RMK A01 T00111099  RH  044%=      5-min Rain = 0
KTIS 111755Z 35012G17KT 01/M10 A3018 RMK A01 T00061103  RH  045%=      5-min Rain = 0
KTIS 111800Z 34013G18KT 01/M11 A3018 RMK A01 T00111107  RH  042%=      5-min Rain = 0
KTIS 111805Z 35012KT 02/M11 A3018 RMK A01 T00151109  RH  040%=      5-min Rain = 0
KTIS 111810Z 35012KT 02/M11 A3018 RMK A01 T00151113  RH  038%=      5-min Rain = 0
KTIS 111815Z 36011G16KT 02/M11 A3018 RMK A01 T00171114  RH  038%=      5-min Rain = 0
KTIS 111820Z 35011KT 02/M11 A3017 RMK A01 T00221112  RH  037%=      5-min Rain = 0
KTIS 111825Z 01009KT 02/M12 A3017 RMK A01 T00221115  RH  036%=      5-min Rain = 0
KTIS 111830Z 36010G15KT 02/M11 A3017 RMK A01 T00231114  RH  036%=      5-min Rain = 0
KTIS 111835Z 01009G14KT 03/M12 A3016 RMK A01 T00251116  RH  035%=      5-min Rain = 0
KTIS 111840Z 00008KT 03/M12 A3016 RMK A01 T00271115  RH  035%=      5-min Rain = 0
KTIS 111845Z 35007G12KT 03/M11 A3016 RMK A01 T00311114  RH  034%=      5-min Rain = 0
KTIS 111850Z 36012KT 03/M12 A3016 RMK A01 T00331118  RH  032%=      5-min Rain = 0
KTIS 111855Z 35010KT 03/M12 A3016 RMK A01 T00321119  RH  032%=      5-min Rain = 0
KTIS 111900Z 35009KT 03/M12 A3015 RMK A01 T00331123  RH  031%=      5-min Rain = 0
KTIS 111905Z 00009G14KT 04/M13 A3015 RMK A01 T00351127  RH  030%=      5-min Rain = 0
KTIS 111910Z 01009KT 04/M12 A3015 RMK A01 T00361124  RH  030%=      5-min Rain = 0
KTIS 111915Z 02008KT 04/M13 A3015 RMK A01 T00361125  RH  030%=      5-min Rain = 0
KTIS 111920Z 35008KT 04/M12 A3014 RMK A01 T00391123  RH  030%=      5-min Rain = 0
KTIS 111925Z 01008KT 04/M12 A3014 RMK A01 T00391124  RH  030%=      5-min Rain = 0
KTIS 111930Z 02006KT 04/M13 A3013 RMK A01 T00401125  RH  029%=      5-min Rain = 0
KTIS 111935Z 36009KT 04/M13 A3013 RMK A01 T00421125  RH  029%=      5-min Rain = 0
KTIS 111940Z 02007KT 04/M13 A3013 RMK A01 T00421125  RH  029%=      5-min Rain = 0
KTIS 111945Z 05006G11KT 05/M13 A3012 RMK A01 T00451125  RH  028%=      5-min Rain = 0
KTIS 111950Z 02006G11KT 04/M13 A3012 RMK A01 T00441125  RH  028%=      5-min Rain = 0
KTIS 111955Z 02008KT 05/M13 A3012 RMK A01 T00451127  RH  028%=      5-min Rain = 0
KTIS 112000Z 02005KT 05/M13 A3011 RMK A01 T00471125  RH  028%=      5-min Rain = 0
KTIS 112005Z 02007KT 05/M13 A3011 RMK A01 T00501125  RH  027%=      5-min Rain = 0
KTIS 112010Z 03007KT 05/M13 A3011 RMK A01 T00511130  RH  026%=      5-min Rain = 0
KTIS 112015Z 02008KT 05/M13 A3011 RMK A01 T00501131  RH  026%=      5-min Rain = 0
KTIS 112020Z 01006KT 05/M13 A3011 RMK A01 T00521132  RH  026%=      5-min Rain = 0
KTIS 112025Z 01007KT 05/M13 A301 RMK A01 T00541132  RH  025%=      5-min Rain = 0
KTIS 112030Z 01005KT 05/M13 A301 RMK A01 T00541130  RH  026%=      5-min Rain = 0
KTIS 112035Z 04004G11KT 05/M13 A301 RMK A01 T00531129  RH  026%=      5-min Rain = 0
KTIS 112040Z 00007KT 06/M13 A301 RMK A01 T00561132  RH  025%=      5-min Rain = 0
KTIS 112045Z 02007KT 06/M13 A301 RMK A01 T00561131  RH  025%=      5-min Rain = 0
KTIS 112050Z 03005KT 06/M13 A3011 RMK A01 T00571131  RH  025%=      5-min Rain = 0
KTIS 112055Z 01006KT 06/M13 A301 RMK A01 T00591132  RH  024%=      5-min Rain = 0
KTIS 112100Z 01005KT 06/M13 A301 RMK A01 T00621132  RH  024%=      5-min Rain = 0
KTIS 112105Z 02003KT 06/M13 A301 RMK A01 T00611132  RH  024%=      5-min Rain = 0
KTIS 112110Z 02007KT 06/M13 A301 RMK A01 T00641133  RH  023%=      5-min Rain = 0
KTIS 112115Z 36006KT 06/M13 A301 RMK A01 T00631134  RH  023%=      5-min Rain = 0
KTIS 112120Z 00006G11KT 06/M13 A301 RMK A01 T00641132  RH  023%=      5-min Rain = 0
KTIS 112125Z 02005KT 07/M13 A301 RMK A01 T00651133  RH  023%=      5-min Rain = 0
KTIS 112130Z 01006KT 07/M14 A301 RMK A01 T00651136  RH  023%=      5-min Rain = 0
KTIS 112135Z 34004KT 07/M13 A301 RMK A01 T00671133  RH  023%=      5-min Rain = 0
KTIS 112140Z 05004G10KT 07/M14 A301 RMK A01 T00671135  RH  022%=      5-min Rain = 0
KTIS 112145Z 03008G13KT 07/M14 A301 RMK A01 T00661138  RH  022%=      5-min Rain = 0
KTIS 112150Z 05006KT 06/M14 A3011 RMK A01 T00641136  RH  023%=      5-min Rain = 0
KTIS 112155Z 01004G9KT 07/M14 A3011 RMK A01 T00671138  RH  022%=      5-min Rain = 0
KTIS 112200Z 35005KT 07/M14 A3011 RMK A01 T00671137  RH  022%=      5-min Rain = 0
KTIS 112205Z 02007KT 07/M14 A3011 RMK A01 T00691136  RH  022%=      5-min Rain = 0
KTIS 112210Z 03004KT 07/M14 A3011 RMK A01 T00681135  RH  022%=      5-min Rain = 0
KTIS 112215Z 04004KT 07/M13 A3011 RMK A01 T00681134  RH  022%=      5-min Rain = 0
KTIS 112220Z 35005KT 07/M13 A3011 RMK A01 T00681134  RH  022%=      5-min Rain = 0
KTIS 112225Z 03006KT 07/M13 A3011 RMK A01 T00701133  RH  022%=      5-min Rain = 0
KTIS 112230Z 07003KT 07/M14 A3011 RMK A01 T00681135  RH  022%=      5-min Rain = 0
KTIS 112235Z 02005KT 07/M13 A3011 RMK A01 T00681134  RH  022%=      5-min Rain = 0
KTIS 112240Z 35002KT 07/M13 A3011 RMK A01 T00681133  RH  023%=      5-min Rain = 0
KTIS 112245Z 04003KT 07/M13 A3011 RMK A01 T00721132  RH  022%=      5-min Rain = 0
KTIS 112250Z 05004KT 07/M13 A3012 RMK A01 T00721132  RH  022%=      5-min Rain = 0
KTIS 112255Z 34006KT 07/M14 A3012 RMK A01 T00691135  RH  022%=      5-min Rain = 0
KTIS 112300Z 34003KT 07/M13 A3012 RMK A01 T00691134  RH  022%=      5-min Rain = 0
KTIS 112305Z 02004KT 07/M13 A3012 RMK A01 T00691134  RH  022%=      5-min Rain = 0
KTIS 112310Z 01005KT 07/M13 A3012 RMK A01 T00681134  RH  023%=      5-min Rain = 0
KTIS 112315Z 34004KT 07/M13 A3012 RMK A01 T00671134  RH  023%=      5-min Rain = 0
KTIS 112320Z 02003KT 07/M13 A3012 RMK A01 T00671134  RH  023%=      5-min Rain = 0
KTIS 112325Z 03005KT 07/M13 A3012 RMK A01 T00671133  RH  023%=      5-min Rain = 0
KTIS 112330Z 03004KT 07/M13 A3012 RMK A01 T00661133  RH  023%=      5-min Rain = 0
KTIS 112335Z 03004KT 07/M13 A3012 RMK A01 T00651134  RH  023%=      5-min Rain = 0
KTIS 112340Z 06003KT 06/M13 A3012 RMK A01 T00641133  RH  023%=      5-min Rain = 0
KTIS 112345Z 09004KT 06/M13 A3012 RMK A01 T00631133  RH  023%=      5-min Rain = 0
KTIS 112350Z 10003KT 06/M13 A3013 RMK A01 T00611132  RH  024%=      5-min Rain = 0
KTIS 112355Z 08003KT 06/M13 A3013 RMK A01 T00601132  RH  024%=      5-min Rain = 0
KTIS 120000Z 07003KT 06/M13 A3013 RMK A01 T00571133  RH  024%=      5-min Rain = 0
KTIS 120005Z 08004KT 05/M14 A3013 RMK A01 T00531135  RH  025%=      5-min Rain = 0
KTIS 120010Z 08004KT 05/M13 A3013 RMK A01 T00471132  RH  026%=      5-min Rain = 0
KTIS 120015Z 07004KT 04/M13 A3013 RMK A01 T00411134  RH  027%=      5-min Rain = 0
KTIS 120020Z 07004KT 04/M14 A3013 RMK A01 T00381135  RH  027%=      5-min Rain = 0
KTIS 120025Z 08005KT 04/M14 A3013 RMK A01 T00351139  RH  027%=      5-min Rain = 0
KTIS 120030Z 08005KT 03/M14 A3013 RMK A01 T00311141  RH  027%=      5-min Rain = 0
KTIS 120035Z 08005KT 03/M14 A3013 RMK A01 T00281140  RH  028%=      5-min Rain = 0
KTIS 120040Z 09005KT 03/M14 A3014 RMK A01 T00301140  RH  028%=      5-min Rain = 0
KTIS 120045Z 09005KT 03/M14 A3014 RMK A01 T00291140  RH  028%=      5-min Rain = 0
KTIS 120050Z 10005KT 03/M14 A3014 RMK A01 T00281140  RH  028%=      5-min Rain = 0
KTIS 120055Z 11005KT 03/M14 A3014 RMK A01 T00271141  RH  028%=      5-min Rain = 0
KTIS 120100Z 11004KT 02/M14 A3014 RMK A01 T00231144  RH  028%=      5-min Rain = 0
KTIS 120105Z 10003KT 02/M14 A3014 RMK A01 T00151144  RH  030%=      5-min Rain = 0
KTIS 120110Z 10003KT 02/M15 A3015 RMK A01 T00151146  RH  030%=      5-min Rain = 0
KTIS 120115Z 10004KT 01/M15 A3015 RMK A01 T00131148  RH  029%=      5-min Rain = 0
KTIS 120120Z 10004KT 01/M15 A3015 RMK A01 T00121148  RH  030%=      5-min Rain = 0
KTIS 120125Z 10004KT 01/M15 A3015 RMK A01 T00121147  RH  030%=      5-min Rain = 0
KTIS 120130Z 11004KT 01/M15 A3015 RMK A01 T00061148  RH  031%=      5-min Rain = 0
KTIS 120135Z 11004KT 00/M15 A3015 RMK A01 T00011146  RH  033%=      5-min Rain = 0
KTIS 120140Z 12004KT 00/M15 A3016 RMK A01 T00021145  RH  033%=      5-min Rain = 0
KTIS 120145Z 12004KT 01/M14 A3016 RMK A01 T00051144  RH  032%=      5-min Rain = 0
KTIS 120150Z 13004KT M00/M15 A3016 RMK A01 T10021148  RH  033%=      5-min Rain = 0
KTIS 120155Z 13004KT M01/M15 A3016 RMK A01 T10051146  RH  034%=      5-min Rain = 0
KTIS 120200Z 13005KT M01/M15 A3017 RMK A01 T10101147  RH  035%=      5-min Rain = 0
KTIS 120205Z 12006KT M02/M15 A3017 RMK A01 T10161147  RH  037%=      5-min Rain = 0
KTIS 120210Z 12006KT M02/M15 A3017 RMK A01 T10181147  RH  037%=      5-min Rain = 0
KTIS 120215Z 12005KT M02/M15 A3017 RMK A01 T10151146  RH  037%=      5-min Rain = 0
KTIS 120220Z 13005KT M02/M14 A3017 RMK A01 T10191143  RH  039%=      5-min Rain = 0
KTIS 120225Z 13006KT M02/M15 A3017 RMK A01 T10181145  RH  038%=      5-min Rain = 0
KTIS 120230Z 14007KT M02/M15 A3017 RMK A01 T10191145  RH  038%=      5-min Rain = 0
KTIS 120235Z 14006KT M02/M15 A3018 RMK A01 T10201147  RH  038%=      5-min Rain = 0
KTIS 120240Z 14006KT M03/M15 A3018 RMK A01 T10261149  RH  039%=      5-min Rain = 0
KTIS 120245Z 14005KT M03/M15 A3018 RMK A01 T10291150  RH  040%=      5-min Rain = 0
KTIS 120250Z 15007KT M03/M15 A3018 RMK A01 T10311147  RH  041%=      5-min Rain = 0
KTIS 120255Z 15007KT M04/M15 A3018 RMK A01 T10361147  RH  043%=      5-min Rain = 0
KTIS 120300Z 14007KT M04/M15 A3018 RMK A01 T10351147  RH  042%=      5-min Rain = 0
KTIS 120305Z 14007KT M03/M15 A3019 RMK A01 T10341149  RH  041%=      5-min Rain = 0
KTIS 120310Z 15007KT M04/M15 A3019 RMK A01 T10351149  RH  042%=      5-min Rain = 0
KTIS 120315Z 16008KT M04/M15 A3019 RMK A01 T10361146  RH  043%=      5-min Rain = 0
KTIS 120320Z 17008KT M03/M15 A3019 RMK A01 T10321146  RH  042%=      5-min Rain = 0
KTIS 120325Z 17008KT M03/M15 A302 RMK A01 T10311150  RH  040%=      5-min Rain = 0
KTIS 120330Z 16007KT M03/M14 A302 RMK A01 T10321144  RH  042%=      5-min Rain = 0
KTIS 120335Z 16007KT M04/M15 A302 RMK A01 T10371146  RH  043%=      5-min Rain = 0
KTIS 120340Z 16007KT M04/M15 A302 RMK A01 T10441147  RH  045%=      5-min Rain = 0
KTIS 120345Z 17009KT M04/M14 A302 RMK A01 T10421141  RH  047%=      5-min Rain = 0
KTIS 120350Z 17010KT M03/M14 A302 RMK A01 T10321140  RH  044%=      5-min Rain = 0
KTIS 120355Z 17011KT M03/M14 A302 RMK A01 T10301141  RH  043%=      5-min Rain = 0
KTIS 120400Z 18011KT M03/M14 A302 RMK A01 T10321142  RH  043%=      5-min Rain = 0
KTIS 120405Z 17010KT M03/M14 A302 RMK A01 T10341142  RH  044%=      5-min Rain = 0
KTIS 120410Z 17009KT M04/M14 A3019 RMK A01 T10361142  RH  044%=      5-min Rain = 0
KTIS 120415Z 17008KT M04/M14 A3019 RMK A01 T10381141  RH  045%=      5-min Rain = 0
KTIS 120420Z 17009KT M04/M14 A3019 RMK A01 T10381142  RH  045%=      5-min Rain = 0
KTIS 120425Z 17009KT M04/M14 A3019 RMK A01 T10381141  RH  045%=      5-min Rain = 0
KTIS 120430Z 18010KT M04/M14 A3019 RMK A01 T10351140  RH  045%=      5-min Rain = 0
KTIS 120435Z 18009KT M04/M14 A3019 RMK A01 T10361140  RH  045%=      5-min Rain = 0
KTIS 120440Z 18010KT M04/M14 A3019 RMK A01 T10391142  RH  045%=      5-min Rain = 0
KTIS 120445Z 18010KT M05/M15 A3019 RMK A01 T10451147  RH  046%=      5-min Rain = 0
KTIS 120450Z 18010KT M05/M15 A3019 RMK A01 T10481147  RH  047%=      5-min Rain = 0
KTIS 120455Z 18010KT M05/M15 A302 RMK A01 T10481147  RH  047%=      5-min Rain = 0
KTIS 120500Z 18009KT M05/M15 A302 RMK A01 T10481146  RH  047%=      5-min Rain = 0
KTIS 120505Z 18009KT M05/M15 A302 RMK A01 T10481145  RH  047%=      5-min Rain = 0
KTIS 120510Z 18009KT M05/M15 A302 RMK A01 T10501146  RH  048%=      5-min Rain = 0
KTIS 120515Z 18009KT M05/M14 A302 RMK A01 T10521144  RH  049%=      5-min Rain = 0
KTIS 120520Z 18008KT M05/M14 A302 RMK A01 T10521144  RH  049%=      5-min Rain = 0
KTIS 120525Z 18009KT M05/M14 A302 RMK A01 T10541142  RH  051%=      5-min Rain = 0
KTIS 120530Z 18008KT M05/M14 A302 RMK A01 T10521141  RH  051%=      5-min Rain = 0
KTIS 120535Z 18007KT M05/M14 A302 RMK A01 T10541142  RH  051%=      5-min Rain = 0
KTIS 120540Z 18008KT M06/M14 A302 RMK A01 T10571143  RH  052%=      5-min Rain = 0
KTIS 120545Z 18007KT M06/M14 A302 RMK A01 T10561142  RH  051%=      5-min Rain = 0
KTIS 120550Z 19008KT M06/M14 A3021 RMK A01 T10571143  RH  051%=      5-min Rain = 0
KTIS 120555Z 19008KT M06/M15 A3021 RMK A01 T10591145  RH  051%=      5-min Rain = 0

Page generated in 0.0096 seconds.